Time;durP1;ratioP1;P1;durP2;ratioP2;P2;SDS_P1;SDS_P2;PMS_P1;PMS_P2;Temp;Humidity;BMP_temperature;BMP_pressure;BME280_temperature;BME280_humidity;BME280_pressure;Samples;Min_cycle;Max_cycle;Signal;HPM_P1;HPM_P2
2022/11/07 00:01:40;;;;;;;9.13;8.10;;;;;;;3.44;69.12;102152.48;1851357;77;21319;-86
2022/11/07 00:04:08;;;;;;;10.58;8.50;;;;;;;3.47;69.26;102158.53;1849567;77;20948;-85
2022/11/07 00:06:37;;;;;;;10.70;8.18;;;;;;;3.53;69.25;102154.61;1849611;77;20952;-87
2022/11/07 00:09:05;;;;;;;10.08;8.25;;;;;;;3.61;69.22;102153.25;1850042;77;20936;-88
2022/11/07 00:11:32;;;;;;;9.55;7.75;;;;;;;3.64;69.07;102157.55;1849677;77;20885;-88
2022/11/07 00:14:00;;;;;;;12.40;8.53;;;;;;;3.65;69.02;102153.66;1849721;77;20869;-85
2022/11/07 00:16:28;;;;;;;10.55;7.95;;;;;;;3.66;68.90;102148.03;1849543;77;20941;-85
2022/11/07 00:18:56;;;;;;;8.33;7.58;;;;;;;3.68;68.95;102151.03;1849549;77;20956;-86
2022/11/07 00:21:24;;;;;;;8.88;7.70;;;;;;;3.73;69.08;102149.70;1849651;77;20964;-86
2022/11/07 00:23:51;;;;;;;10.50;8.13;;;;;;;3.78;69.12;102148.37;1850252;77;20905;-85
2022/11/07 00:26:20;;;;;;;10.95;8.45;;;;;;;3.84;68.96;102155.67;1850788;77;21319;-84
2022/11/07 00:28:47;;;;;;;12.47;6.70;;;;;;;3.89;68.71;102150.03;1850436;77;21766;-84
2022/11/07 00:31:15;;;;;;;9.28;7.75;;;;;;;3.91;68.51;102157.79;1850230;77;20913;-86
2022/11/07 00:33:42;;;;;;;14.05;9.48;;;;;;;3.88;68.16;102153.48;1849623;77;20988;-86
2022/11/07 00:36:18;;;;;;;12.68;8.23;;;;;;;3.85;68.23;102149.63;1849754;77;20838;-85
2022/11/07 00:38:46;;;;;;;7.90;6.58;;;;;;;3.84;68.12;102148.34;1849835;77;20922;-86
2022/11/07 00:41:13;;;;;;;10.43;7.80;;;;;;;3.84;68.02;102144.00;1849818;76;21120;-87
2022/11/07 00:43:41;;;;;;;11.78;9.10;;;;;;;3.81;68.01;102144.48;1849395;76;20889;-86
2022/11/07 00:46:09;;;;;;;8.13;7.33;;;;;;;3.78;68.03;102139.29;1849428;76;20913;-85
2022/11/07 00:48:37;;;;;;;8.08;7.37;;;;;;;3.78;68.04;102144.48;1849436;77;21402;-86
2022/11/07 00:51:23;;;;;;;12.20;8.48;;;;;;;3.74;68.02;102138.03;1849218;76;20897;-84
2022/11/07 00:53:51;;;;;;;10.58;7.97;;;;;;;3.72;68.15;102141.06;1849365;76;20873;-86
2022/11/07 00:56:22;;;;;;;9.20;8.28;;;;;;;3.68;68.22;102136.77;1849895;77;20869;-85
2022/11/07 00:58:55;;;;;;;8.25;7.30;;;;;;;3.68;68.35;102134.61;1850421;76;20853;-85
2022/11/07 01:01:25;;;;;;;8.35;7.55;;;;;;;3.67;68.28;102129.87;1824009;77;20924;-84
2022/11/07 01:06:23;;;;;;;10.00;8.03;;;;;;;3.61;68.53;102120.83;1799125;77;21843;-86
2022/11/07 01:08:50;;;;;;;9.75;7.92;;;;;;;3.62;68.60;102125.13;1857948;77;21389;-85
2022/11/07 01:11:18;;;;;;;13.75;8.63;;;;;;;3.62;68.58;102119.94;1857726;77;21464;-86
2022/11/07 01:13:44;;;;;;;14.10;9.08;;;;;;;3.61;68.79;102109.59;1857819;77;20915;-86
2022/11/07 01:16:11;;;;;;;10.70;8.03;;;;;;;3.66;68.92;102111.70;1857794;77;20868;-88
2022/11/07 01:18:38;;;;;;;12.23;9.45;;;;;;;3.71;68.81;102104.74;1857872;77;21136;-86
2022/11/07 01:21:07;;;;;;;9.33;7.53;;;;;;;3.77;68.77;102107.74;1858167;77;20962;-86
2022/11/07 01:23:34;;;;;;;10.88;7.72;;;;;;;3.81;68.53;102096.47;1857855;77;20871;-87
2022/11/07 01:26:06;;;;;;;10.53;7.45;;;;;;;3.78;68.34;102101.25;1857774;77;20966;-86
2022/11/07 01:28:34;;;;;;;8.08;6.78;;;;;;;3.78;68.46;102095.18;1857951;77;20915;-86
2022/11/07 01:31:06;;;;;;;10.13;8.28;;;;;;;3.77;68.45;102091.73;1857926;77;21106;-85
2022/11/07 01:33:34;;;;;;;7.47;6.45;;;;;;;3.76;68.30;102096.52;1857662;77;20954;-87
2022/11/07 01:36:03;;;;;;;10.55;6.15;;;;;;;3.73;68.21;102094.81;1857758;77;20840;-86
2022/11/07 01:38:30;;;;;;;13.98;8.38;;;;;;;3.71;68.26;102084.88;1857720;77;20930;-87
2022/11/07 01:44:07;;;;;;;10.82;8.15;;;;;;;3.70;68.34;102084.88;1857847;77;21270;-87
2022/11/07 01:46:43;;;;;;;7.70;6.67;;;;;;;3.68;68.44;102082.28;1857806;77;20926;-86
2022/11/07 01:49:20;;;;;;;8.25;6.70;;;;;;;3.70;68.45;102077.09;1858178;77;20906;-85
2022/11/07 01:52:03;;;;;;;8.53;6.10;;;;;;;3.68;68.29;102074.50;1857646;77;20950;-86
2022/11/07 01:54:33;;;;;;;9.35;6.17;;;;;;;3.68;68.29;102069.31;1857919;77;20906;-87
2022/11/07 01:57:08;;;;;;;7.83;5.97;;;;;;;3.67;68.13;102068.91;1858084;77;21196;-87
2022/11/07 01:59:36;;;;;;;7.83;6.75;;;;;;;3.65;68.17;102073.24;1858623;77;20911;-86
2022/11/07 02:02:03;;;;;;;10.32;7.37;;;;;;;3.63;68.31;102071.54;1859436;77;20990;-83
2022/11/07 02:04:30;;;;;;;5.53;5.03;;;;;;;3.64;68.47;102066.31;1860291;77;20885;-82
2022/11/07 02:07:18;;;;;;;10.05;7.10;;;;;;;3.66;68.60;102072.36;1851809;77;20972;-85
2022/11/07 02:09:47;;;;;;;9.93;6.25;;;;;;;3.68;68.52;102071.05;1851292;77;21296;-86
2022/11/07 02:12:14;;;;;;;6.60;5.90;;;;;;;3.68;68.33;102071.91;1849964;77;21430;-87
2022/11/07 02:14:42;;;;;;;7.10;6.50;;;;;;;3.62;68.23;102077.14;1849636;77;20846;-87
2022/11/07 02:17:11;;;;;;;9.08;7.33;;;;;;;3.59;68.45;102071.13;1849533;77;20920;-85
2022/11/07 02:19:48;;;;;;;9.65;7.33;;;;;;;3.59;68.57;102067.24;1849457;77;20874;-87
2022/11/07 02:22:49;;;;;;;9.70;7.53;;;;;;;3.60;68.52;102071.13;1849572;77;21116;-87
2022/11/07 02:25:17;;;;;;;10.08;6.45;;;;;;;3.58;68.40;102067.69;1849764;77;20964;-85
2022/11/07 02:27:45;;;;;;;7.85;7.05;;;;;;;3.51;68.54;102064.27;1849577;77;20968;-85
2022/11/07 02:30:15;;;;;;;8.73;7.83;;;;;;;3.47;68.64;102065.16;1823509;76;20858;-85
2022/11/07 02:32:43;;;;;;;12.10;7.67;;;;;;;3.48;68.88;102062.12;1849476;77;20841;-86
2022/11/07 02:35:32;;;;;;;7.92;7.12;;;;;;;3.49;68.83;102058.65;1849531;76;21875;-86
2022/11/07 02:38:02;;;;;;;8.83;7.95;;;;;;;3.48;68.82;102064.28;1849434;77;20925;-86
2022/11/07 02:40:29;;;;;;;12.80;8.98;;;;;;;3.50;69.02;102057.34;1849776;77;20917;-87
2022/11/07 02:42:56;;;;;;;11.65;6.92;;;;;;;3.57;69.11;102059.91;1849324;76;20937;-86
2022/11/07 02:45:29;;;;;;;6.78;5.08;;;;;;;3.59;68.78;102062.05;1849313;77;20953;-86
2022/11/07 02:47:57;;;;;;;8.63;6.03;;;;;;;3.57;68.64;102061.20;1849477;77;21120;-88
2022/11/07 02:50:23;;;;;;;10.78;7.00;;;;;;;3.50;68.66;102065.13;1849418;77;20944;-86
2022/11/07 02:52:50;;;;;;;8.58;7.75;;;;;;;3.50;68.85;102060.39;1849309;77;20885;-86
2022/11/07 02:55:16;;;;;;;7.67;6.87;;;;;;;3.53;69.02;102057.34;1849627;77;20928;-86
2022/11/07 02:57:43;;;;;;;12.40;8.70;;;;;;;3.56;68.91;102055.57;1849598;77;20991;-87
2022/11/07 03:00:12;;;;;;;15.55;8.90;;;;;;;3.58;69.02;102057.72;1849741;77;21130;-88
2022/11/07 03:02:45;;;;;;;11.55;8.55;;;;;;;3.59;69.03;102055.12;1850403;77;20916;-86
2022/11/07 03:05:09;;;;;;;9.35;8.38;;;;;;;3.63;69.14;102050.78;1848166;76;20820;-86
2022/11/07 03:07:36;;;;;;;8.90;7.37;;;;;;;3.64;69.04;102050.75;1837200;77;20883;-85
2022/11/07 03:10:05;;;;;;;10.95;9.03;;;;;;;3.66;69.03;102050.75;1838043;76;20808;-85
2022/11/07 03:12:31;;;;;;;10.35;8.35;;;;;;;3.67;68.88;102051.19;1836687;77;21139;-86
2022/11/07 03:14:58;;;;;;;11.43;9.45;;;;;;;3.66;68.90;102052.05;1834848;77;20859;-85
2022/11/07 03:17:24;;;;;;;10.80;6.97;;;;;;;3.68;69.05;102054.19;1834904;76;20962;-87
2022/11/07 03:19:53;;;;;;;8.30;6.45;;;;;;;3.69;68.74;102055.48;1835132;77;21002;-88
2022/11/07 03:22:19;;;;;;;6.42;5.83;;;;;;;3.67;68.42;102056.38;1835063;76;20871;-87
2022/11/07 03:24:46;;;;;;;6.58;5.97;;;;;;;3.63;68.27;102059.42;1834913;77;21951;-88
2022/11/07 03:27:12;;;;;;;9.15;6.47;;;;;;;3.59;68.27;102052.97;1834971;78;21341;-88
2022/11/07 03:29:39;;;;;;;7.15;6.00;;;;;;;3.58;68.29;102050.83;1835183;76;20903;-88
2022/11/07 03:32:06;;;;;;;7.72;5.97;;;;;;;3.58;68.26;102049.94;1835180;77;21001;-87
2022/11/07 03:34:34;;;;;;;7.78;6.12;;;;;;;3.51;68.30;102040.05;1835120;77;21484;-88
2022/11/07 03:37:00;;;;;;;7.90;6.78;;;;;;;3.47;68.49;102040.97;1834990;77;21277;-88
2022/11/07 03:39:27;;;;;;;7.03;6.25;;;;;;;3.45;68.62;102038.83;1834882;77;20887;-89
2022/11/07 03:41:53;;;;;;;9.03;6.33;;;;;;;3.44;68.74;102033.20;1834963;77;20962;-89
2022/11/07 03:44:20;;;;;;;5.92;5.35;;;;;;;3.47;68.87;102039.23;1834798;78;20883;-87
2022/11/07 03:46:46;;;;;;;7.20;6.40;;;;;;;3.50;68.79;102040.94;1834986;77;21376;-88
2022/11/07 03:49:15;;;;;;;7.72;6.00;;;;;;;3.50;68.63;102031.41;1834873;77;21860;-89
2022/11/07 03:51:41;;;;;;;9.20;6.05;;;;;;;3.49;68.76;102028.83;1834759;76;20871;-86
2022/11/07 03:54:09;;;;;;;5.85;5.25;;;;;;;3.48;68.74;102025.82;1834968;77;20879;-87
2022/11/07 03:56:36;;;;;;;6.85;5.25;;;;;;;3.43;68.72;102032.34;1834217;77;21439;-86
2022/11/07 03:59:02;;;;;;;5.20;4.80;;;;;;;3.39;68.71;102030.64;1834867;76;20922;-88
2022/11/07 04:01:29;;;;;;;6.87;5.10;;;;;;;3.35;68.88;102031.53;1834853;77;21234;-87
2022/11/07 04:03:56;;;;;;;7.67;5.30;;;;;;;3.31;68.98;102033.30;1834817;77;20961;-88
2022/11/07 04:06:22;;;;;;;7.92;5.25;;;;;;;3.27;69.13;102034.19;1849433;76;20844;-86
2022/11/07 04:08:50;;;;;;;4.95;4.55;;;;;;;3.27;69.36;102030.30;1860258;76;20917;-85
2022/11/07 04:19:08;;;;;;;5.90;5.30;;;;;;;3.39;69.46;102020.27;1860177;76;21392;-87
2022/11/07 04:21:34;;;;;;;7.45;4.55;;;;;;;3.42;69.37;102024.56;1860092;76;20907;-87
2022/11/07 04:24:01;;;;;;;5.87;5.15;;;;;;;3.41;69.34;102026.30;1860242;77;20851;-87
2022/11/07 04:29:13;;;;;;;9.00;4.97;;;;;;;3.33;69.37;102024.20;1860504;76;20958;-86
2022/11/07 04:31:40;;;;;;;5.55;4.72;;;;;;;3.27;69.45;102021.23;1860551;76;20954;-86
2022/11/07 04:34:06;;;;;;;5.75;5.08;;;;;;;3.23;69.60;102014.34;1860490;77;20954;-86
2022/11/07 04:36:35;;;;;;;6.95;5.03;;;;;;;3.18;69.74;102017.41;1860375;76;20950;-88
2022/11/07 04:39:01;;;;;;;6.15;5.40;;;;;;;3.18;69.89;102020.41;1860329;77;21063;-88
2022/11/07 04:41:28;;;;;;;7.28;6.40;;;;;;;3.17;70.05;102017.41;1860144;77;20902;-88
2022/11/07 04:43:54;;;;;;;8.20;6.83;;;;;;;3.21;70.04;102020.41;1860473;77;21337;-87
2022/11/07 04:46:23;;;;;;;6.42;5.62;;;;;;;3.22;70.09;102021.67;1860036;77;20926;-87
2022/11/07 04:48:50;;;;;;;7.40;6.60;;;;;;;3.24;70.22;102022.97;1860100;77;20836;-88
2022/11/07 04:51:20;;;;;;;7.85;6.65;;;;;;;3.25;70.26;102024.27;1860021;77;21242;-89
2022/11/07 04:53:46;;;;;;;7.20;6.50;;;;;;;3.32;70.20;102028.53;1859935;76;20924;-87
2022/11/07 04:56:13;;;;;;;11.57;6.35;;;;;;;3.34;70.15;102027.23;1860180;77;20990;-88
2022/11/07 04:58:40;;;;;;;7.53;6.60;;;;;;;3.35;70.11;102029.38;1859981;77;20990;-88
2022/11/07 05:01:06;;;;;;;5.75;5.20;;;;;;;3.38;70.21;102038.42;1860073;77;21271;-88
2022/11/07 05:03:33;;;;;;;7.53;6.00;;;;;;;3.41;70.11;102032.79;1860059;76;21282;-88
2022/11/07 05:06:00;;;;;;;6.28;5.50;;;;;;;3.43;69.95;102032.78;1852709;77;20930;-88
2022/11/07 05:08:26;;;;;;;7.42;5.22;;;;;;;3.44;69.83;102040.53;1836042;77;20923;-87
2022/11/07 05:10:53;;;;;;;12.47;6.08;;;;;;;3.41;69.62;102038.42;1835943;77;20974;-87
2022/11/07 05:13:19;;;;;;;7.20;5.65;;;;;;;3.36;69.71;102043.64;1836079;77;20958;-86
2022/11/07 05:15:47;;;;;;;8.83;6.15;;;;;;;3.35;69.83;102037.16;1837681;77;21230;-84
2022/11/07 05:18:14;;;;;;;7.75;6.20;;;;;;;3.37;69.87;102028.94;1837486;77;20926;-85
2022/11/07 05:20:42;;;;;;;11.63;6.30;;;;;;;3.36;69.84;102034.56;1835983;77;20915;-88
2022/11/07 05:23:17;;;;;;;7.47;6.75;;;;;;;3.36;70.05;102030.67;1835666;78;21333;-88
2022/11/07 05:25:53;;;;;;;9.90;7.25;;;;;;;3.42;70.16;102033.20;1833844;77;20903;-87
2022/11/07 05:28:22;;;;;;;7.80;6.33;;;;;;;3.49;70.13;102044.38;1835214;77;21238;-88
2022/11/07 05:30:49;;;;;;;9.48;6.80;;;;;;;3.56;70.14;102045.20;1835157;77;20867;-89
2022/11/07 05:33:17;;;;;;;8.23;6.03;;;;;;;3.58;69.75;102047.34;1835163;78;21416;-87
2022/11/07 05:35:44;;;;;;;7.42;6.60;;;;;;;3.56;69.66;102047.79;1835069;77;20926;-90
2022/11/07 05:38:11;;;;;;;6.95;6.25;;;;;;;3.51;69.49;102049.12;1835081;77;20879;-88
2022/11/07 05:40:39;;;;;;;8.33;6.42;;;;;;;3.45;69.51;102048.75;1835332;77;21349;-87
2022/11/07 05:43:09;;;;;;;7.08;6.35;;;;;;;3.40;69.62;102047.05;1835051;77;20918;-88
2022/11/07 05:45:37;;;;;;;8.63;7.67;;;;;;;3.37;69.84;102048.38;1835084;76;20997;-87
2022/11/07 05:48:12;;;;;;;8.30;7.50;;;;;;;3.40;69.79;102053.53;1835225;78;20914;-90
2022/11/07 05:50:43;;;;;;;8.50;7.58;;;;;;;3.43;69.88;102054.83;1835180;76;21434;-86
2022/11/07 05:53:09;;;;;;;10.72;7.53;;;;;;;3.45;70.02;102056.53;1835041;77;21128;-88
2022/11/07 05:55:37;;;;;;;7.95;7.12;;;;;;;3.53;70.23;102057.76;1834993;77;20977;-88
2022/11/07 05:58:10;;;;;;;12.70;7.42;;;;;;;3.62;69.93;102055.09;1835065;76;20911;-88
2022/11/07 06:00:39;;;;;;;10.08;7.47;;;;;;;3.63;69.64;102059.42;1835116;77;20925;-87
2022/11/07 06:03:06;;;;;;;11.05;7.45;;;;;;;3.60;69.41;102058.57;1835102;76;20926;-88
2022/11/07 06:05:32;;;;;;;8.88;7.42;;;;;;;3.57;69.49;102056.02;1835074;77;21105;-87
2022/11/07 06:07:59;;;;;;;12.35;7.58;;;;;;;3.58;69.58;102052.53;1835036;77;21321;-88
2022/11/07 06:10:26;;;;;;;10.05;7.92;;;;;;;3.63;69.53;102062.02;1835178;77;21427;-89
2022/11/07 06:13:02;;;;;;;9.43;7.15;;;;;;;3.69;69.64;102049.41;1836202;77;20985;-89
2022/11/07 06:15:32;;;;;;;10.80;7.12;;;;;;;3.76;69.61;102048.92;1837875;77;20843;-88
2022/11/07 06:18:01;;;;;;;8.00;7.20;;;;;;;3.81;69.29;102053.22;1837927;77;21318;-88
2022/11/07 06:20:28;;;;;;;9.23;7.47;;;;;;;3.81;69.00;102051.06;1837567;77;20950;-87
2022/11/07 06:22:58;;;;;;;9.03;7.33;;;;;;;3.80;69.03;102049.33;1836147;76;20930;-88
2022/11/07 06:25:26;;;;;;;7.53;6.72;;;;;;;3.81;69.08;102044.13;1835394;76;20875;-87
2022/11/07 06:28:03;;;;;;;9.23;7.37;;;;;;;3.85;68.73;102045.83;1835332;77;20989;-89
2022/11/07 06:30:30;;;;;;;11.68;7.72;;;;;;;3.82;68.69;102049.73;1836019;77;21263;-86
2022/11/07 06:33:05;;;;;;;12.45;7.17;;;;;;;3.77;68.59;102041.58;1835137;77;20875;-88
2022/11/07 06:35:32;;;;;;;10.90;7.30;;;;;;;3.73;68.86;102039.03;1835673;77;20903;-89
2022/11/07 06:38:12;;;;;;;6.10;5.20;;;;;;;3.74;68.86;102031.66;1836657;77;20923;-89
2022/11/07 06:40:40;;;;;;;9.73;6.78;;;;;;;3.76;68.94;102027.76;1836425;77;20966;-88
2022/11/07 06:43:12;;;;;;;10.70;8.38;;;;;;;3.78;69.02;102035.09;1835592;77;21165;-89
2022/11/07 06:45:39;;;;;;;21.85;15.50;;;;;;;3.80;68.99;102032.46;1835544;77;20898;-88
2022/11/07 06:48:06;;;;;;;9.80;7.87;;;;;;;3.85;69.24;102030.70;1835367;77;20879;-88
2022/11/07 06:50:36;;;;;;;7.60;6.42;;;;;;;3.90;69.12;102025.03;1835510;77;20891;-89
2022/11/07 06:53:06;;;;;;;6.45;5.85;;;;;;;3.91;68.53;102036.70;1835117;77;20839;-89
2022/11/07 06:55:34;;;;;;;9.95;5.70;;;;;;;3.87;68.56;102034.16;1835269;76;20966;-88
2022/11/07 06:58:02;;;;;;;9.28;6.37;;;;;;;3.84;68.58;102031.56;1835159;77;20871;-89
2022/11/07 07:00:31;;;;;;;8.23;6.28;;;;;;;3.81;68.73;102024.67;1835175;77;20897;-89
2022/11/07 07:02:58;;;;;;;6.50;5.90;;;;;;;3.84;68.96;102027.67;1835137;77;20887;-88
2022/11/07 07:05:26;;;;;;;6.92;5.78;;;;;;;3.90;68.89;102023.73;1835164;77;20918;-89
2022/11/07 07:07:54;;;;;;;9.53;7.25;;;;;;;3.94;68.82;102017.64;1857166;76;21123;-90
2022/11/07 07:10:23;;;;;;;10.28;7.33;;;;;;;3.94;68.74;102010.70;1861347;77;20902;-89
2022/11/07 07:12:55;;;;;;;6.97;6.03;;;;;;;3.97;68.78;102016.74;1861316;77;20919;-91
2022/11/07 07:15:21;;;;;;;7.97;6.95;;;;;;;4.02;68.78;102021.00;1861131;77;21055;-89
2022/11/07 07:17:48;;;;;;;9.10;7.40;;;;;;;4.10;68.56;102020.94;1861208;77;20848;-89
2022/11/07 07:20:16;;;;;;;12.93;9.13;;;;;;;4.13;68.56;102020.89;1861204;77;21247;-89
2022/11/07 07:22:45;;;;;;;7.83;7.03;;;;;;;4.21;68.53;102022.12;1860911;76;20911;-90
2022/11/07 07:25:13;;;;;;;7.22;6.50;;;;;;;4.28;68.37;102019.87;1861236;77;20951;-90
2022/11/07 07:27:40;;;;;;;12.33;8.85;;;;;;;4.29;67.89;102026.36;1860944;77;20891;-91
2022/11/07 07:30:10;;;;;;;10.58;8.05;;;;;;;4.28;67.81;102025.06;1861115;77;20958;-90
2022/11/07 07:32:37;;;;;;;8.50;6.78;;;;;;;4.26;67.79;102026.37;1861143;77;21241;-90
2022/11/07 07:35:08;;;;;;;15.30;10.65;;;;;;;4.29;67.77;102029.37;1860695;76;20927;-88
2022/11/07 07:37:35;;;;;;;9.33;7.05;;;;;;;4.33;67.78;102023.27;1860174;76;21408;-89
2022/11/07 07:40:05;;;;;;;8.03;6.00;;;;;;;4.39;67.76;102023.20;1860289;77;21460;-88
2022/11/07 07:42:36;;;;;;;8.45;6.78;;;;;;;4.44;67.55;102022.70;1860404;76;20907;-89
2022/11/07 07:45:06;;;;;;;8.98;8.08;;;;;;;4.49;67.57;102032.63;1860230;76;22313;-90
2022/11/07 07:47:34;;;;;;;9.18;7.05;;;;;;;4.56;67.51;102023.87;1860147;76;21165;-90
2022/11/07 07:50:02;;;;;;;7.75;6.83;;;;;;;4.64;67.26;102015.96;1860443;76;20856;-90
2022/11/07 07:52:29;;;;;;;7.80;6.35;;;;;;;4.74;67.03;102007.62;1860139;77;20891;-87
2022/11/07 07:54:56;;;;;;;7.62;6.90;;;;;;;4.80;66.69;102009.27;1860107;77;20883;-89
2022/11/07 07:57:24;;;;;;;10.00;7.35;;;;;;;4.84;66.26;102009.20;1860693;77;20962;-91
2022/11/07 07:59:52;;;;;;;13.18;8.68;;;;;;;4.86;65.86;102002.25;1860918;76;21007;-91
2022/11/07 08:02:19;;;;;;;9.65;7.53;;;;;;;4.84;65.68;101996.66;1861147;77;20970;-91
2022/11/07 08:04:46;;;;;;;23.05;15.05;;;;;;;4.85;65.63;102002.29;1830763;77;20947;-88
2022/11/07 08:07:14;;;;;;;8.30;6.20;;;;;;;4.85;65.35;101997.94;1856398;77;21461;-90
2022/11/07 08:09:42;;;;;;;9.45;7.25;;;;;;;4.86;65.31;102001.39;1850708;77;21196;-90
2022/11/07 08:12:12;;;;;;;8.05;7.12;;;;;;;4.90;65.63;101985.73;1826158;77;20881;-89
2022/11/07 08:14:39;;;;;;;7.53;6.60;;;;;;;5.04;65.16;101994.62;1850916;76;20874;-89
2022/11/07 08:17:08;;;;;;;9.35;6.47;;;;;;;5.11;64.64;101992.79;1852698;76;20881;-89
2022/11/07 08:19:35;;;;;;;7.67;5.53;;;;;;;5.13;64.45;101988.42;1851933;77;20964;-90
2022/11/07 08:22:03;;;;;;;7.58;6.78;;;;;;;5.12;64.29;101988.02;1851549;77;21268;-87
2022/11/07 08:24:31;;;;;;;7.87;6.72;;;;;;;5.12;64.37;101989.33;1852628;77;20834;-88
2022/11/07 08:27:01;;;;;;;10.85;6.70;;;;;;;5.13;64.18;101998.83;1852414;77;20875;-88
2022/11/07 08:29:28;;;;;;;10.78;8.08;;;;;;;5.10;64.12;101994.54;1852438;77;20949;-86
2022/11/07 08:31:57;;;;;;;11.08;7.55;;;;;;;5.08;64.46;101987.65;1851427;77;21228;-89
2022/11/07 08:34:25;;;;;;;9.13;7.60;;;;;;;5.11;64.31;101990.19;1850797;77;21094;-89
2022/11/07 08:36:54;;;;;;;9.53;7.62;;;;;;;5.15;64.38;101988.81;1850539;77;20830;-89
2022/11/07 08:39:22;;;;;;;9.70;8.15;;;;;;;5.23;64.20;101981.36;1850525;77;20909;-89
2022/11/07 08:41:51;;;;;;;14.65;8.18;;;;;;;5.30;64.13;101979.92;1849984;77;20894;-89
2022/11/07 08:44:18;;;;;;;12.25;7.60;;;;;;;5.40;64.05;101985.82;1849830;77;20909;-89
2022/11/07 08:46:46;;;;;;;11.43;8.15;;;;;;;5.49;63.80;101978.31;1849322;77;21066;-90
2022/11/07 08:49:16;;;;;;;13.30;9.73;;;;;;;5.56;63.63;101981.25;1848855;77;20987;-90
2022/11/07 08:51:44;;;;;;;12.60;7.53;;;;;;;5.64;63.18;101977.20;1849286;77;20880;-91
2022/11/07 08:54:12;;;;;;;11.55;8.05;;;;;;;5.69;62.94;101968.44;1849440;77;20913;-89
2022/11/07 08:56:39;;;;;;;12.13;7.08;;;;;;;5.77;62.98;101969.14;1850196;77;20838;-89
2022/11/07 08:59:08;;;;;;;13.40;8.48;;;;;;;5.85;62.23;101967.71;1850250;77;21222;-88
2022/11/07 09:01:38;;;;;;;14.73;6.17;;;;;;;5.82;62.45;101966.45;1849902;77;20932;-87
2022/11/07 09:04:06;;;;;;;18.23;7.47;;;;;;;5.84;62.43;101969.88;1849985;77;20881;-87
2022/11/07 09:06:34;;;;;;;12.37;7.08;;;;;;;5.93;62.46;101968.85;1849171;76;20925;-89
2022/11/07 09:09:03;;;;;;;33.08;21.62;;;;;;;6.03;61.97;101968.29;1835002;77;20895;-88
2022/11/07 09:11:31;;;;;;;18.87;9.18;;;;;;;6.03;61.89;101968.29;1834885;77;21297;-90
2022/11/07 09:13:59;;;;;;;13.90;9.05;;;;;;;6.09;61.88;101965.13;1806956;78;20891;-88
2022/11/07 09:16:26;;;;;;;22.60;9.48;;;;;;;6.13;61.59;101957.63;1834775;78;20951;-89
2022/11/07 09:22:02;;;;;;;12.33;8.20;;;;;;;6.35;61.11;101958.06;1856115;77;22645;-87
2022/11/07 09:24:30;;;;;;;11.80;8.43;;;;;;;6.45;61.12;101962.65;1823824;78;20966;-90
2022/11/07 09:26:56;;;;;;;13.15;8.28;;;;;;;6.72;61.34;101961.19;1823562;78;21088;-90
2022/11/07 09:29:23;;;;;;;20.72;8.93;;;;;;;6.97;60.53;101957.56;1790748;78;20920;-89
2022/11/07 09:31:49;;;;;;;12.00;7.62;;;;;;;7.23;60.38;101951.73;1820799;78;20912;-92
2022/11/07 09:34:16;;;;;;;15.48;8.38;;;;;;;7.63;59.58;101955.09;1815644;78;20872;-89
2022/11/07 09:36:45;;;;;;;11.90;8.80;;;;;;;7.83;57.85;101951.95;1820406;78;20876;-91
2022/11/07 09:39:13;;;;;;;9.43;7.97;;;;;;;7.83;57.64;101948.87;1820695;78;21403;-88
2022/11/07 09:41:48;;;;;;;12.40;8.10;;;;;;;7.81;57.08;101953.28;1820276;78;20924;-90
2022/11/07 09:44:33;;;;;;;13.40;8.73;;;;;;;7.74;56.86;101950.44;1820508;78;20922;-90
2022/11/07 09:47:08;;;;;;;14.00;7.70;;;;;;;7.72;56.87;101947.46;1819700;78;20892;-91
2022/11/07 09:49:52;;;;;;;11.18;7.30;;;;;;;7.95;56.91;101951.59;1819904;78;21360;-90
2022/11/07 09:52:46;;;;;;;9.18;6.15;;;;;;;8.22;56.30;101953.88;1820586;78;21262;-89
2022/11/07 09:55:18;;;;;;;12.78;7.58;;;;;;;8.46;55.44;101944.50;1756264;81;21571;-90
2022/11/07 09:57:44;;;;;;;10.78;6.12;;;;;;;8.90;54.93;101950.59;1756522;81;20906;-90
2022/11/07 10:00:16;;;;;;;9.15;6.42;;;;;;;9.36;54.85;101948.22;1756371;81;21160;-90
2022/11/07 10:02:53;;;;;;;9.50;6.60;;;;;;;9.88;53.65;101938.58;1756865;81;20907;-89
2022/11/07 10:05:31;;;;;;;15.70;7.70;;;;;;;10.28;52.07;101935.80;1756648;81;21137;-89
2022/11/07 10:08:22;;;;;;;9.05;6.60;;;;;;;10.66;51.63;101924.32;1756342;80;20973;-90
2022/11/07 10:10:55;;;;;;;11.83;7.15;;;;;;;10.96;50.23;101927.47;1756376;80;20963;-90
2022/11/07 10:13:49;;;;;;;11.50;6.15;;;;;;;11.18;49.24;101928.33;1756461;81;20950;-91
2022/11/07 10:16:26;;;;;;;;;;;;;;;11.35;49.22;101916.25;1759181;80;20974;-92
2022/11/07 10:19:19;;;;;;;11.55;7.28;;;;;;;11.62;48.49;101912.89;1756516;80;21131;-92
2022/11/07 10:22:06;;;;;;;11.95;7.80;;;;;;;11.77;47.65;101913.53;1762799;81;20910;-92
2022/11/07 10:24:57;;;;;;;10.82;7.83;;;;;;;11.96;47.08;101912.30;1764735;81;21551;-90
2022/11/07 10:27:26;;;;;;;9.05;5.92;;;;;;;12.19;47.06;101907.77;1828110;78;20926;-90
2022/11/07 10:29:53;;;;;;;7.40;6.15;;;;;;;12.27;46.36;101904.77;1829395;78;21451;-91
2022/11/07 10:32:43;;;;;;;6.15;5.10;;;;;;;12.37;46.41;101895.06;1828946;78;20935;-90
2022/11/07 10:35:32;;;;;;;6.58;5.65;;;;;;;12.57;46.24;101894.12;1794965;80;20939;-89
2022/11/07 10:38:09;;;;;;;6.45;5.62;;;;;;;12.81;45.54;101891.23;1795396;80;20982;-89
2022/11/07 10:40:39;;;;;;;7.30;5.50;;;;;;;12.96;45.36;101886.53;1793339;80;20903;-91
2022/11/07 10:43:10;;;;;;;12.43;7.27;;;;;;;13.05;45.20;101886.55;1795695;80;20863;-91
2022/11/07 10:45:38;;;;;;;11.55;7.03;;;;;;;13.02;44.48;101884.05;1795372;80;21362;-91
2022/11/07 10:48:06;;;;;;;9.25;7.42;;;;;;;12.88;44.09;101882.09;1795392;80;20876;-91
2022/11/07 10:50:37;;;;;;;9.35;7.17;;;;;;;12.74;44.39;101879.28;1795395;80;20891;-90
2022/11/07 10:53:13;;;;;;;13.73;7.37;;;;;;;12.69;44.15;101887.40;1770884;80;20983;-93
2022/11/07 10:55:45;;;;;;;13.32;6.80;;;;;;;12.60;43.95;101879.48;1795582;80;20848;-90
2022/11/07 10:58:29;;;;;;;10.85;7.00;;;;;;;12.40;43.92;101879.59;1795695;80;21090;-91
2022/11/07 11:01:03;;;;;;;12.23;6.72;;;;;;;12.21;44.27;101873.05;1795246;80;20919;-91
2022/11/07 11:03:44;;;;;;;13.25;7.58;;;;;;;12.02;44.80;101873.03;1795633;80;20915;-90
2022/11/07 11:06:21;;;;;;;10.18;7.40;;;;;;;11.79;45.11;101872.73;1794021;80;21045;-91
2022/11/07 11:08:50;;;;;;;11.78;8.80;;;;;;;11.51;45.76;101862.12;1795471;80;21128;-91
2022/11/07 11:11:33;;;;;;;10.65;8.05;;;;;;;11.19;46.50;101860.44;1796174;80;21803;-91
2022/11/07 11:14:12;;;;;;;9.43;6.72;;;;;;;10.94;47.08;101856.69;1829320;78;20967;-90
2022/11/07 11:16:40;;;;;;;10.90;6.72;;;;;;;10.67;47.72;101857.80;1830362;78;20923;-90
2022/11/07 11:19:21;;;;;;;9.85;7.75;;;;;;;10.42;48.31;101864.50;1831199;78;20986;-91
2022/11/07 11:21:50;;;;;;;10.28;6.75;;;;;;;10.22;48.86;101858.22;1825638;78;21002;-91
2022/11/07 11:24:34;;;;;;;8.88;7.35;;;;;;;10.14;49.14;101859.84;1822074;78;21119;-89
2022/11/07 11:27:11;;;;;;;10.20;7.85;;;;;;;10.05;49.24;101856.69;1805555;78;20955;-87
2022/11/07 11:30:06;;;;;;;7.33;6.20;;;;;;;9.88;49.67;101855.58;1820139;78;20840;-89
2022/11/07 11:32:54;;;;;;;8.10;5.97;;;;;;;9.74;50.24;101852.16;1819803;78;20938;-88
2022/11/07 11:35:38;;;;;;;6.53;5.92;;;;;;;9.64;50.81;101849.93;1810483;78;20951;-90
2022/11/07 11:38:30;;;;;;;9.93;6.60;;;;;;;9.62;50.98;101842.58;1819943;78;21208;-93
2022/11/07 11:41:14;;;;;;;8.73;6.08;;;;;;;9.64;51.25;101850.77;1819637;78;21551;-91
2022/11/07 11:43:55;;;;;;;7.87;6.30;;;;;;;9.60;51.16;101841.78;1819816;78;20916;-90
2022/11/07 11:46:36;;;;;;;7.83;6.40;;;;;;;9.50;51.42;101830.79;1814589;78;20923;-90
2022/11/07 11:49:46;;;;;;;12.55;7.65;;;;;;;9.43;51.61;101831.47;1819863;78;20837;-89
2022/11/07 11:52:21;;;;;;;12.05;9.28;;;;;;;9.40;51.95;101826.32;1819957;78;21164;-89
2022/11/07 11:54:49;;;;;;;;;;;;;;;9.40;52.00;101830.71;1822547;78;20848;-90
2022/11/07 11:58:02;;;;;;;10.55;7.90;;;;;;;9.49;51.77;101819.91;1819744;78;20095;-90
2022/11/07 12:00:29;;;;;;;13.85;9.45;;;;;;;9.58;51.76;101821.33;1818961;78;20954;-88
2022/11/07 12:03:18;;;;;;;17.17;9.03;;;;;;;9.66;51.42;101818.84;1819874;78;20872;-89
2022/11/07 12:06:07;;;;;;;14.10;7.62;;;;;;;9.67;51.42;101813.13;1819904;78;21863;-91